Terminal Aerodrome Forecast
Issued by NWS Pueblo, CO

Home | Current Version | Previous Version | Text Only | Print | Product List | Glossary On
Versions: 1 2 3 4 5 6 7 8 9 10 11 12 13 14 15 16 17 18 19
000
FTUS45 KPUB 171956 AAB
TAFPUB
TAF AMD
KPUB 171956Z 1720/1818 28015G25KT P6SM FEW070 SCT200
     FM172200 28030G45KT P6SM FEW070 SCT200
     FM172300 28022G32KT P6SM SCT060 BKN150
     FM180500 33032G45KT P6SM SCT030 BKN080
     FM180900 34015G25KT P6SM FEW060 BKN090
     FM181100 36015KT P6SM SCT100
     FM181400 20004KT P6SM SKC=

USA.gov is the U.S. government's official web portal to all federal, state and local government web resources and services.